Fujairah International Airport

Airport
ICAO code: 
OMFJ
IATA Code: 
FJR
Summary
ICAO Region: 
MID
Location: 
Fujairah,
Serving: 
Fujairah
Elevation: 
152 ft
Coordinates: 
Aerial View: 
25° 6' 44" N, 56° 19' 26" E
Metar
Observation
OMFJ 281200Z 30012KT 280V360 8000 NSC 29/04 Q1015 A2999
Station
Fujairah
Date/Time
2022-01-28 12:00:00
Wind direction
300°
Wind speed
12 kts
Lowest cloud amount
nil significant cloud
Temperature
29°C
Dew point
4°C
Humidity
20%
QNH
1015 hPa
Weather condition
n/a

Description

International airport serving the emirate of Fujairah, UAE.

Climatology

Hot Desert Climate (Köppen climate classification BWh) - Hot desert climates are typically found in the subtropics where there is unbroken sunshine for the whole year due to the stable descending air and high pressure, little or no precipitation. Maximum temperatures of 40°C to 45°C are not uncommon, particularly during the warmer months of the year.

Runways

Designator Length Width Surface Rops
11/29 3750 45 ASP Yes/Yes
Airport map: 
Aerial View: 

SKYbrary Partners:

Safety knowledge contributed by: